createdAt,value
2023-05-15T00:00:33.664Z,46.82
2023-05-15T00:03:02.517Z,46.83
2023-05-15T00:05:30.572Z,46.69
2023-05-15T00:07:58.598Z,46.86
2023-05-15T00:10:26.730Z,46.86
2023-05-15T00:12:54.793Z,46.67
2023-05-15T00:15:23.101Z,46.77
2023-05-15T00:17:52.884Z,47.00
2023-05-15T00:20:21.077Z,46.76
2023-05-15T00:22:49.329Z,46.48
2023-05-15T00:25:19.701Z,46.80
2023-05-15T00:27:49.612Z,46.69
2023-05-15T00:30:17.624Z,46.57
2023-05-15T00:32:45.736Z,46.85
2023-05-15T00:35:15.209Z,46.72
2023-05-15T00:37:43.174Z,46.76
2023-05-15T00:40:12.431Z,46.80
2023-05-15T00:42:40.386Z,46.61
2023-05-15T00:45:09.960Z,46.74
2023-05-15T00:47:38.126Z,46.64
2023-05-15T00:50:07.125Z,46.60
2023-05-15T00:52:36.745Z,46.42
2023-05-15T00:55:04.966Z,46.65
2023-05-15T00:57:32.981Z,46.87
2023-05-15T01:00:01.099Z,46.79
2023-05-15T01:02:29.269Z,46.70
2023-05-15T01:04:57.396Z,46.52
2023-05-15T01:07:25.427Z,46.63
2023-05-15T01:09:54.737Z,46.64
2023-05-15T01:12:22.702Z,46.83
2023-05-15T01:14:50.812Z,46.54
2023-05-15T01:17:18.822Z,46.66
2023-05-15T01:19:47.120Z,46.76
2023-05-15T01:22:36.190Z,46.62
2023-05-15T01:25:48.933Z,46.89
2023-05-15T01:28:20.956Z,46.63
2023-05-15T01:30:49.180Z,46.93
2023-05-15T01:33:19.952Z,46.55
2023-05-15T01:35:50.781Z,46.60
2023-05-15T01:38:21.207Z,46.85
2023-05-15T01:40:50.115Z,46.64
2023-05-15T01:43:25.725Z,46.74
2023-05-15T01:45:53.840Z,46.31
2023-05-15T01:48:21.866Z,46.74
2023-05-15T01:50:49.847Z,46.56
2023-05-15T01:53:17.791Z,46.55
2023-05-15T01:55:45.850Z,46.52
2023-05-15T01:58:13.770Z,46.67
2023-05-15T02:00:43.534Z,46.50
2023-05-15T02:03:11.499Z,46.30
2023-05-15T02:05:39.514Z,46.52
2023-05-15T02:08:07.561Z,46.18
2023-05-15T02:10:35.599Z,46.52
2023-05-15T02:13:03.580Z,46.47
2023-05-15T02:15:31.649Z,46.12
2023-05-15T02:18:01.086Z,46.47
2023-05-15T02:20:29.421Z,46.51
2023-05-15T02:22:57.401Z,46.55
2023-05-15T02:25:29.097Z,46.28
2023-05-15T02:27:58.858Z,46.09
2023-05-15T02:30:32.773Z,46.35
2023-05-15T02:33:07.102Z,46.55
2023-05-15T02:35:39.093Z,46.10
2023-05-15T02:38:09.472Z,46.26
2023-05-15T02:40:38.000Z,46.26
2023-05-15T02:43:06.077Z,46.11
2023-05-15T02:45:34.167Z,46.30
2023-05-15T02:48:03.640Z,46.35
2023-05-15T02:50:31.703Z,46.28
2023-05-15T02:53:03.692Z,46.25
2023-05-15T02:55:31.830Z,46.34
2023-05-15T02:57:59.882Z,46.14
2023-05-15T03:00:27.940Z,46.00
2023-05-15T03:02:56.061Z,45.86
2023-05-15T03:05:26.249Z,46.08
2023-05-15T03:07:56.001Z,46.24
2023-05-15T03:10:24.330Z,45.97
2023-05-15T03:12:52.292Z,45.85
2023-05-15T03:15:20.431Z,46.06
2023-05-15T03:17:48.471Z,45.96
2023-05-15T03:20:16.632Z,46.27
2023-05-15T03:22:46.082Z,45.86
2023-05-15T03:25:14.095Z,46.22
2023-05-15T03:27:42.112Z,46.28
2023-05-15T03:30:11.170Z,46.14
2023-05-15T03:32:39.129Z,46.10
2023-05-15T03:35:07.619Z,46.26
2023-05-15T03:37:35.512Z,46.26
2023-05-15T03:40:07.458Z,46.16
2023-05-15T03:42:35.400Z,46.10
2023-05-15T03:45:03.374Z,46.25
2023-05-15T03:47:31.332Z,46.02
2023-05-15T03:49:59.311Z,45.98
2023-05-15T03:52:27.307Z,46.13
2023-05-15T03:54:55.201Z,46.03
2023-05-15T03:57:24.612Z,45.99
2023-05-15T03:59:52.503Z,45.94
2023-05-15T04:02:20.573Z,46.12
2023-05-15T04:04:48.952Z,46.03
2023-05-15T04:07:19.230Z,45.76
2023-05-15T04:09:47.136Z,46.21
2023-05-15T04:12:15.275Z,45.90
2023-05-15T04:14:44.709Z,45.79
2023-05-15T04:17:12.785Z,45.94
2023-05-15T04:19:43.062Z,45.95
2023-05-15T04:22:11.157Z,46.25
2023-05-15T04:24:39.125Z,46.10
2023-05-15T04:27:07.114Z,46.03
2023-05-15T04:29:35.162Z,46.11
2023-05-15T04:32:04.676Z,46.07
2023-05-15T04:34:32.695Z,46.18
2023-05-15T04:37:01.270Z,46.14
2023-05-15T04:39:29.189Z,45.98
2023-05-15T04:41:57.165Z,46.27
2023-05-15T04:44:25.068Z,46.17
2023-05-15T04:46:52.958Z,45.90
2023-05-15T04:49:22.300Z,46.08
2023-05-15T04:51:50.299Z,46.34
2023-05-15T04:54:18.218Z,45.98
2023-05-15T04:56:46.750Z,45.89
2023-05-15T04:59:15.994Z,45.94
2023-05-15T05:01:44.160Z,46.09
2023-05-15T05:04:12.200Z,46.12
2023-05-15T05:06:41.573Z,46.10
2023-05-15T05:09:10.818Z,46.46
2023-05-15T05:11:43.641Z,46.38
2023-05-15T05:14:11.564Z,46.12
2023-05-15T05:16:39.502Z,46.11
2023-05-15T05:19:07.483Z,46.19
2023-05-15T05:21:35.556Z,46.61
2023-05-15T05:24:05.029Z,46.18
2023-05-15T05:26:33.058Z,46.59
2023-05-15T05:29:01.110Z,46.21
2023-05-15T05:31:29.155Z,46.65
2023-05-15T05:33:57.119Z,46.87
2023-05-15T05:36:25.026Z,46.34
2023-05-15T05:38:52.986Z,46.74
2023-05-15T05:41:22.751Z,46.56
2023-05-15T05:43:50.758Z,46.80
2023-05-15T05:46:19.306Z,46.63
2023-05-15T05:48:47.310Z,46.39
2023-05-15T05:51:15.990Z,46.85
2023-05-15T05:53:43.968Z,46.59
2023-05-15T05:56:11.960Z,46.40
2023-05-15T05:58:41.361Z,46.46
2023-05-15T06:01:09.371Z,46.46
2023-05-15T06:03:37.458Z,46.44
2023-05-15T06:06:06.105Z,46.54
2023-05-15T06:08:34.131Z,46.30
2023-05-15T06:11:02.123Z,46.45
2023-05-15T06:13:30.087Z,46.39
2023-05-15T06:15:59.464Z,46.53
2023-05-15T06:18:27.447Z,46.86
2023-05-15T06:20:55.436Z,47.00
2023-05-15T06:23:24.320Z,47.01
2023-05-15T06:25:52.514Z,47.08
2023-05-15T06:28:20.858Z,46.94
2023-05-15T06:30:48.887Z,47.41
2023-05-15T06:33:18.293Z,47.11
2023-05-15T06:35:46.379Z,47.25
2023-05-15T06:38:14.373Z,47.22
2023-05-15T06:40:42.368Z,47.31
2023-05-15T06:43:10.324Z,47.20
2023-05-15T06:45:38.330Z,47.13
2023-05-15T06:48:06.672Z,47.35
2023-05-15T06:50:36.063Z,47.17
2023-05-15T06:53:04.341Z,47.31
2023-05-15T06:55:34.210Z,48.38
2023-05-15T06:58:02.248Z,47.94
2023-05-15T07:00:30.226Z,48.04
2023-05-15T07:02:58.406Z,47.81
2023-05-15T07:05:26.674Z,47.90
2023-05-15T07:07:56.229Z,48.35
2023-05-15T07:10:24.418Z,47.95
2023-05-15T07:12:52.696Z,47.86
2023-05-15T07:15:20.771Z,47.91
2023-05-15T07:17:48.731Z,48.26
2023-05-15T07:20:16.647Z,47.92
2023-05-15T07:22:54.908Z,47.93
2023-05-15T07:25:25.466Z,48.35
2023-05-15T07:27:53.773Z,48.00
2023-05-15T07:30:21.990Z,48.05
2023-05-15T07:32:50.109Z,48.45
2023-05-15T07:35:18.484Z,48.08
2023-05-15T07:37:46.968Z,48.36
2023-05-15T07:40:15.659Z,48.49
2023-05-15T07:42:45.399Z,48.18
2023-05-15T07:45:13.475Z,48.37
2023-05-15T07:47:45.500Z,48.50
2023-05-15T07:50:13.544Z,48.04
2023-05-15T07:52:41.521Z,48.70
2023-05-15T07:55:10.151Z,49.25
2023-05-15T07:57:38.071Z,48.99
2023-05-15T08:00:12.863Z,48.88
2023-05-15T08:02:41.106Z,48.71
2023-05-15T08:05:09.598Z,48.87
2023-05-15T08:07:37.586Z,48.73
2023-05-15T08:10:06.511Z,48.74
2023-05-15T08:12:34.522Z,48.69
2023-05-15T08:15:02.593Z,48.76
2023-05-15T08:17:32.126Z,48.70
2023-05-15T08:20:00.216Z,48.61
2023-05-15T08:22:30.399Z,48.53
2023-05-15T08:24:58.557Z,48.19
2023-05-15T08:27:26.597Z,48.16
2023-05-15T08:29:55.293Z,48.21
2023-05-15T08:32:23.323Z,48.68
2023-05-15T08:34:52.679Z,49.24
2023-05-15T08:37:20.602Z,49.14
2023-05-15T08:39:48.618Z,48.94
2023-05-15T08:42:19.173Z,49.02
2023-05-15T08:44:47.087Z,49.18
2023-05-15T08:47:15.239Z,48.79
2023-05-15T08:49:48.806Z,48.93
2023-05-15T08:52:18.178Z,49.00
2023-05-15T08:54:48.449Z,49.31
2023-05-15T08:57:22.494Z,48.85
2023-05-15T08:59:50.665Z,48.83
2023-05-15T09:02:18.764Z,49.15
2023-05-15T09:04:46.622Z,49.00
2023-05-15T09:07:15.068Z,48.93
2023-05-15T09:09:44.517Z,49.00
2023-05-15T09:12:12.525Z,49.07
2023-05-15T09:14:40.451Z,48.97
2023-05-15T09:17:08.598Z,49.25
2023-05-15T09:19:36.658Z,48.85
2023-05-15T09:22:16.902Z,48.97
2023-05-15T09:24:48.170Z,49.28
2023-05-15T09:27:16.228Z,49.08
2023-05-15T09:29:44.240Z,49.04
2023-05-15T09:32:13.263Z,49.22
2023-05-15T09:34:41.935Z,49.18
2023-05-15T09:37:11.042Z,48.95
2023-05-15T09:39:42.150Z,48.99
2023-05-15T09:42:12.274Z,50.02
2023-05-15T09:44:42.274Z,50.75
2023-05-15T09:47:10.696Z,49.98
2023-05-15T09:49:38.790Z,49.67
2023-05-15T09:52:09.136Z,49.75
2023-05-15T09:54:37.259Z,50.04
2023-05-15T09:57:13.450Z,50.29
2023-05-15T09:59:45.104Z,50.08
2023-05-15T10:02:15.156Z,49.68
2023-05-15T10:04:43.089Z,50.03
2023-05-15T10:07:11.099Z,49.91
2023-05-15T10:09:39.023Z,49.96
2023-05-15T10:12:07.560Z,50.29
2023-05-15T10:14:36.818Z,50.34
2023-05-15T10:17:04.932Z,50.28
2023-05-15T10:19:32.911Z,50.50
2023-05-15T10:22:01.079Z,50.58
2023-05-15T10:24:29.310Z,50.40
2023-05-15T10:26:57.251Z,50.05
2023-05-15T10:29:26.783Z,50.64
2023-05-15T10:31:56.117Z,50.23
2023-05-15T10:34:24.051Z,50.19
2023-05-15T10:36:52.016Z,50.17
2023-05-15T10:39:19.922Z,50.41
2023-05-15T10:41:47.847Z,50.55
2023-05-15T10:44:15.787Z,50.25
2023-05-15T10:46:44.548Z,50.54
2023-05-15T10:49:13.914Z,50.73
2023-05-15T10:51:43.234Z,50.47
2023-05-15T10:54:11.164Z,50.45
2023-05-15T10:56:40.596Z,50.47
2023-05-15T10:59:09.367Z,50.93
2023-05-15T11:01:38.012Z,50.75
2023-05-15T11:04:07.720Z,50.71
2023-05-15T11:06:37.540Z,50.88
2023-05-15T11:09:36.984Z,51.08
2023-05-15T11:12:05.981Z,50.46
2023-05-15T11:14:36.212Z,50.58
2023-05-15T11:17:05.404Z,50.52
2023-05-15T11:19:37.707Z,50.49
2023-05-15T11:22:19.208Z,50.60
2023-05-15T11:24:51.944Z,50.46
2023-05-15T11:27:20.728Z,50.28
2023-05-15T11:30:08.008Z,50.23
2023-05-15T11:32:45.970Z,50.73
2023-05-15T11:35:14.176Z,50.39
2023-05-15T11:37:47.258Z,50.37
2023-05-15T11:40:15.805Z,50.31
2023-05-15T11:42:43.762Z,50.50
2023-05-15T11:45:11.994Z,50.27
2023-05-15T11:47:40.021Z,50.46
2023-05-15T11:50:09.009Z,50.60
2023-05-15T11:52:36.923Z,51.03
2023-05-15T11:55:07.422Z,51.62
2023-05-15T11:57:35.412Z,52.46
2023-05-15T12:00:04.051Z,51.76
2023-05-15T12:02:32.076Z,52.93
2023-05-15T12:05:00.167Z,52.34
2023-05-15T12:07:28.191Z,52.61
2023-05-15T12:09:56.199Z,52.85
2023-05-15T12:12:27.746Z,53.00
2023-05-15T12:14:59.364Z,53.06
2023-05-15T12:17:27.770Z,52.87
2023-05-15T12:19:55.914Z,52.68
2023-05-15T12:22:23.988Z,52.25
2023-05-15T12:24:51.996Z,52.42
2023-05-15T12:27:19.941Z,52.62
2023-05-15T12:29:49.290Z,52.35
2023-05-15T12:32:17.503Z,52.79
2023-05-15T12:34:45.804Z,52.59
2023-05-15T12:37:14.546Z,52.50
2023-05-15T12:39:52.124Z,52.64
2023-05-15T12:42:20.117Z,52.41
2023-05-15T12:44:51.653Z,53.03
2023-05-15T12:47:23.653Z,53.88
2023-05-15T12:49:51.628Z,53.98
2023-05-15T12:52:19.582Z,54.39
2023-05-15T12:54:47.521Z,54.93
2023-05-15T12:57:15.961Z,54.68
2023-05-15T12:59:43.919Z,55.74
2023-05-15T13:02:13.433Z,55.39
2023-05-15T13:04:41.485Z,56.62
2023-05-15T13:07:09.448Z,56.16
2023-05-15T13:09:37.424Z,55.90
2023-05-15T13:12:05.702Z,56.08
2023-05-15T13:14:34.087Z,55.64
2023-05-15T13:17:03.005Z,55.68
2023-05-15T13:19:32.302Z,55.77
2023-05-15T13:22:00.397Z,55.59
2023-05-15T13:24:28.331Z,55.95
2023-05-15T13:26:56.248Z,56.23
2023-05-15T13:29:24.247Z,55.49
2023-05-15T13:31:52.532Z,55.19
2023-05-15T13:34:21.196Z,56.44
2023-05-15T13:36:50.539Z,56.29
2023-05-15T13:39:19.262Z,56.37
2023-05-15T13:41:47.190Z,56.38
2023-05-15T13:44:15.347Z,56.36
2023-05-15T13:46:43.304Z,56.95
2023-05-15T13:49:12.070Z,56.78
2023-05-15T13:51:39.951Z,57.21
2023-05-15T13:54:09.314Z,56.39
2023-05-15T13:56:37.285Z,56.41
2023-05-15T13:59:05.196Z,56.80
2023-05-15T14:01:33.134Z,56.31
2023-05-15T14:04:01.147Z,56.59
2023-05-15T14:06:29.102Z,56.17
2023-05-15T14:08:57.072Z,56.40
2023-05-15T14:11:26.559Z,56.27
2023-05-15T14:13:54.515Z,56.22
2023-05-15T14:16:22.462Z,56.29
2023-05-15T14:18:50.463Z,56.02
2023-05-15T14:21:18.397Z,56.22
2023-05-15T14:23:46.300Z,56.00
2023-05-15T14:26:14.235Z,56.12
2023-05-15T14:28:44.078Z,56.05
2023-05-15T14:31:12.013Z,56.09
2023-05-15T14:33:40.102Z,55.85
2023-05-15T14:36:08.153Z,56.28
2023-05-15T14:38:37.373Z,56.39
2023-05-15T14:41:05.367Z,56.23
2023-05-15T14:43:33.332Z,56.32
2023-05-15T14:46:03.239Z,56.18
2023-05-15T14:48:31.216Z,56.08
2023-05-15T14:50:59.309Z,56.00
2023-05-15T14:53:27.348Z,55.98
2023-05-15T14:55:55.752Z,56.29
2023-05-15T14:58:23.723Z,55.88
2023-05-15T15:00:51.777Z,55.78
2023-05-15T15:03:21.971Z,55.99
2023-05-15T15:05:50.084Z,56.16
2023-05-15T15:08:18.049Z,55.88
2023-05-15T15:10:46.083Z,55.94
2023-05-15T15:13:14.139Z,56.08
2023-05-15T15:15:42.162Z,56.27
2023-05-15T15:18:10.293Z,56.19
2023-05-15T15:20:39.725Z,56.19
2023-05-15T15:23:07.650Z,56.16
2023-05-15T15:25:35.684Z,55.89
2023-05-15T15:28:03.843Z,55.82
2023-05-15T15:30:31.984Z,55.83
2023-05-15T15:32:59.980Z,56.05
2023-05-15T15:35:28.102Z,55.79
2023-05-15T15:37:57.652Z,55.70
2023-05-15T15:40:25.835Z,55.96
2023-05-15T15:42:54.297Z,55.74
2023-05-15T15:45:22.398Z,55.73
2023-05-15T15:47:50.500Z,55.80
2023-05-15T15:50:18.560Z,56.05
2023-05-15T15:52:46.573Z,56.06
2023-05-15T15:55:15.836Z,56.15
2023-05-15T15:57:43.924Z,56.18
2023-05-15T16:00:12.868Z,55.86
2023-05-15T16:02:41.403Z,55.54
2023-05-15T16:05:10.146Z,55.68
2023-05-15T16:07:38.173Z,55.82
2023-05-15T16:10:12.523Z,55.85
2023-05-15T16:12:43.121Z,55.94
2023-05-15T16:17:42.311Z,55.90
2023-05-15T16:20:10.637Z,55.79
2023-05-15T16:22:38.625Z,56.01
2023-05-15T16:25:07.180Z,55.98
2023-05-15T16:27:35.095Z,55.72
2023-05-15T16:30:04.729Z,56.01
2023-05-15T16:32:34.025Z,55.86
2023-05-15T16:35:02.083Z,55.93
2023-05-15T16:37:30.046Z,55.91
2023-05-15T16:39:57.980Z,55.97
2023-05-15T16:42:26.204Z,55.72
2023-05-15T16:44:54.151Z,56.07
2023-05-15T16:47:23.615Z,55.79
2023-05-15T16:49:51.611Z,55.92
2023-05-15T16:52:19.529Z,55.86
2023-05-15T16:54:47.518Z,56.13
2023-05-15T16:57:15.671Z,56.31
2023-05-15T16:59:43.706Z,56.32
2023-05-15T17:02:11.854Z,55.97
2023-05-15T17:04:41.201Z,56.26
2023-05-15T17:07:09.301Z,56.13
2023-05-15T17:09:39.050Z,56.42
2023-05-15T17:12:07.892Z,56.20
2023-05-15T17:14:35.830Z,56.06
2023-05-15T17:17:03.817Z,56.04
2023-05-15T17:19:33.191Z,56.58
2023-05-15T17:22:02.543Z,56.47
2023-05-15T17:24:42.314Z,56.35
2023-05-15T17:27:18.431Z,56.76
2023-05-15T17:29:46.434Z,56.74
2023-05-15T17:32:14.799Z,56.64
2023-05-15T17:34:42.841Z,56.39
2023-05-15T17:37:12.198Z,56.65
2023-05-15T17:39:40.225Z,56.58
2023-05-15T17:42:08.225Z,56.38
2023-05-15T17:44:36.413Z,56.74
2023-05-15T17:47:04.348Z,56.59
2023-05-15T17:49:34.258Z,56.50
2023-05-15T17:52:02.324Z,56.81
2023-05-15T17:54:31.704Z,56.10
2023-05-15T17:57:00.185Z,56.55
2023-05-15T17:59:28.563Z,56.79
2023-05-15T18:01:56.701Z,57.21
2023-05-15T18:04:24.828Z,57.56
2023-05-15T18:06:52.777Z,56.79
2023-05-15T18:09:24.199Z,57.07
2023-05-15T18:11:54.085Z,56.43
2023-05-15T18:14:22.153Z,57.05
2023-05-15T18:16:50.075Z,56.44
2023-05-15T18:19:18.265Z,57.26
2023-05-15T18:21:46.362Z,57.55
2023-05-15T18:24:14.363Z,57.28
2023-05-15T18:26:42.267Z,57.00
2023-05-15T18:29:11.589Z,57.39
2023-05-15T18:31:39.554Z,56.80
2023-05-15T18:34:07.720Z,56.75
2023-05-15T18:36:35.897Z,56.99
2023-05-15T18:39:03.851Z,56.58
2023-05-15T18:41:31.761Z,56.69
2023-05-15T18:43:59.751Z,56.88
2023-05-15T18:46:31.182Z,56.76
2023-05-15T18:48:59.840Z,56.78
2023-05-15T18:51:27.842Z,56.52
2023-05-15T18:53:55.809Z,56.78
2023-05-15T18:56:25.038Z,56.38
2023-05-15T18:58:53.088Z,56.64
2023-05-15T19:01:22.153Z,56.55
2023-05-15T19:03:51.915Z,56.67
2023-05-15T19:06:20.479Z,56.30
2023-05-15T19:08:48.828Z,56.72
2023-05-15T19:11:17.576Z,56.58
2023-05-15T19:13:45.572Z,56.65
2023-05-15T19:16:13.658Z,57.01
2023-05-15T19:18:41.806Z,56.71
2023-05-15T19:21:11.347Z,56.25
2023-05-15T19:23:39.342Z,56.44
2023-05-15T19:26:07.354Z,56.27
2023-05-15T19:28:35.806Z,55.97
2023-05-15T19:31:04.330Z,56.64
2023-05-15T19:33:32.307Z,56.10
2023-05-15T19:36:00.348Z,56.07
2023-05-15T19:38:29.866Z,56.06
2023-05-15T19:40:57.823Z,55.18
2023-05-15T19:43:25.794Z,55.47
2023-05-15T19:45:53.870Z,55.36
2023-05-15T19:48:21.822Z,55.57
2023-05-15T19:50:49.789Z,55.15
2023-05-15T19:53:17.765Z,55.12
2023-05-15T19:55:47.266Z,55.03
2023-05-15T19:58:15.263Z,55.41
2023-05-15T20:00:43.294Z,55.41
2023-05-15T20:03:11.362Z,55.50
2023-05-15T20:05:41.000Z,55.31
2023-05-15T20:08:08.991Z,55.31
2023-05-15T20:10:36.902Z,54.76
2023-05-15T20:13:06.212Z,55.17
2023-05-15T20:15:35.174Z,55.06
2023-05-15T20:18:03.234Z,55.07
2023-05-15T20:20:31.317Z,55.08
2023-05-15T20:22:59.538Z,54.64
2023-05-15T20:25:29.033Z,54.83
2023-05-15T20:27:58.671Z,55.00
2023-05-15T20:30:28.482Z,55.08
2023-05-15T20:32:56.576Z,55.04
2023-05-15T20:35:25.225Z,55.64
2023-05-15T20:37:53.547Z,55.01
2023-05-15T20:40:22.996Z,55.01
2023-05-15T20:42:50.973Z,54.92
2023-05-15T20:45:18.961Z,55.13
2023-05-15T20:47:48.379Z,54.90
2023-05-15T20:50:16.378Z,54.57
2023-05-15T20:52:44.515Z,54.98
2023-05-15T20:55:16.006Z,54.85
2023-05-15T20:57:44.623Z,54.93
2023-05-15T21:00:15.494Z,54.86
2023-05-15T21:02:43.749Z,55.42
2023-05-15T21:05:13.116Z,55.35
2023-05-15T21:07:41.103Z,55.87
2023-05-15T21:10:09.622Z,55.47
2023-05-15T21:12:37.609Z,55.49
2023-05-15T21:15:06.369Z,55.86
2023-05-15T21:17:34.272Z,55.66
2023-05-15T21:20:04.174Z,55.77
2023-05-15T21:22:33.540Z,55.36
2023-05-15T21:25:01.531Z,55.32
2023-05-15T21:27:29.404Z,55.50
2023-05-15T21:29:57.312Z,55.32
2023-05-15T21:32:25.428Z,55.69
2023-05-15T21:34:53.441Z,55.50
2023-05-15T21:37:21.367Z,55.30
2023-05-15T21:39:50.660Z,55.70
2023-05-15T21:42:18.621Z,55.42
2023-05-15T21:44:46.593Z,55.58
2023-05-15T21:47:14.598Z,55.71
2023-05-15T21:49:42.499Z,55.56
2023-05-15T21:52:10.414Z,55.57
2023-05-15T21:54:38.372Z,55.61
2023-05-15T21:57:07.877Z,55.60
2023-05-15T21:59:35.872Z,55.64
2023-05-15T22:02:03.992Z,55.25
2023-05-15T22:04:32.060Z,55.36
2023-05-15T22:07:00.148Z,55.59
2023-05-15T22:09:28.175Z,55.33
2023-05-15T22:11:56.551Z,55.27
2023-05-15T22:14:27.359Z,55.69
2023-05-15T22:16:55.340Z,55.78
2023-05-15T22:19:33.340Z,55.55
2023-05-15T22:22:04.516Z,55.61
2023-05-15T22:24:32.520Z,55.87
2023-05-15T22:27:01.650Z,55.29
2023-05-15T22:29:31.495Z,55.66
2023-05-15T22:32:00.701Z,55.81
2023-05-15T22:34:30.106Z,55.71
2023-05-15T22:36:59.288Z,55.70
2023-05-15T22:39:27.244Z,55.64
2023-05-15T22:41:56.526Z,55.17
2023-05-15T22:44:25.595Z,55.61
2023-05-15T22:46:55.012Z,55.57
2023-05-15T22:49:25.585Z,55.71
2023-05-15T22:51:55.323Z,55.40
2023-05-15T22:54:25.023Z,55.10
2023-05-15T22:56:54.336Z,55.19
2023-05-15T22:59:23.641Z,55.68
2023-05-15T23:01:54.066Z,55.33
2023-05-15T23:04:23.296Z,55.25
2023-05-15T23:06:52.520Z,55.39
2023-05-15T23:09:21.990Z,55.46
2023-05-15T23:11:51.759Z,55.56
2023-05-15T23:14:21.758Z,55.74
2023-05-15T23:16:52.174Z,55.23
2023-05-15T23:19:22.757Z,55.57
2023-05-15T23:21:52.007Z,55.57
2023-05-15T23:24:20.052Z,55.36
2023-05-15T23:26:49.221Z,55.10
2023-05-15T23:29:18.483Z,55.38
2023-05-15T23:31:47.648Z,55.52
2023-05-15T23:34:17.130Z,55.45
2023-05-15T23:36:53.700Z,55.50
2023-05-15T23:39:22.809Z,55.11
2023-05-15T23:41:51.964Z,55.22
2023-05-15T23:44:21.276Z,55.36
2023-05-15T23:46:52.723Z,55.41
2023-05-15T23:49:20.662Z,54.94
2023-05-15T23:51:50.999Z,54.99
2023-05-15T23:54:21.309Z,55.02
2023-05-15T23:56:50.402Z,55.15
2023-05-15T23:59:19.836Z,55.07
